Air Quality Table

TIMESTAMP NO2 SO2 O3 CO TEMP HUM AIRPRES WS WD NO BENZENE
2022-05-26 22:00 17.35 µg/m3 0.56 µg/m3 63.34 µg/m3 0.42 mg/m3 22.88 °C 75.37 % 1,014.69 mbar 1.68 m/s 107.64 Deg 2.19 µg/m3 0.5 µg/m3
2022-05-26 21:00 20.12 µg/m3 0.81 µg/m3 60.64 µg/m3 0.43 mg/m3 24.18 °C 60.14 % 1,014.71 mbar 1.69 m/s 166.68 Deg 2.52 µg/m3 0.92 µg/m3
2022-05-26 20:00 22.29 µg/m3 0.74 µg/m3 57.05 µg/m3 0.45 mg/m3 24.83 °C 55.62 % 1,013.23 mbar 1.73 m/s 101.43 Deg 3.39 µg/m3 0.89 µg/m3
2022-05-26 19:00 26.58 µg/m3 1.02 µg/m3 54.23 µg/m3 0.44 mg/m3 24.76 °C 62.26 % 1,012.75 mbar 2.05 m/s 198.99 Deg 4.98 µg/m3 0.97 µg/m3
2022-05-26 18:00 33.19 µg/m3 1 µg/m3 44.09 µg/m3 0.45 mg/m3 25.52 °C 62.02 % 1,013.29 mbar 2.13 m/s 199.84 Deg 7.37 µg/m3 1.15 µg/m3
2022-05-26 17:00 31.69 µg/m3 0.98 µg/m3 56.72 µg/m3 0.43 mg/m3 27.6 °C 50.13 % 1,014.59 mbar 1.64 m/s 179.09 Deg 9.69 µg/m3 0.42 µg/m3
2022-05-26 16:00 21.12 µg/m3 0.83 µg/m3 63.71 µg/m3 0.4 mg/m3 30.28 °C 30.76 % 1,014.95 mbar 1.82 m/s 104.52 Deg 5.8 µg/m3 0.42 µg/m3
2022-05-26 15:00 24.26 µg/m3 0.85 µg/m3 62.31 µg/m3 0.42 mg/m3 29.07 °C 40.44 % 1,015.17 mbar 2.39 m/s 210.18 Deg 7.54 µg/m3 0.47 µg/m3
2022-05-26 14:00 27.28 µg/m3 0.94 µg/m3 64.5 µg/m3 0.42 mg/m3 31.04 °C 30.35 % 1,015.58 mbar 1.93 m/s 268.7 Deg 11.95 µg/m3 0.39 µg/m3
2022-05-26 13:00 23.95 µg/m3 1.21 µg/m3 65.24 µg/m3 0.42 mg/m3 31.42 °C 26.72 % 1,015.84 mbar 1.81 m/s 122.58 Deg 6.83 µg/m3 0.65 µg/m3
2022-05-26 12:00 25.75 µg/m3 0.86 µg/m3 64.53 µg/m3 0.44 mg/m3 29.27 °C 37.97 % 1,015.99 mbar 2.02 m/s 154.54 Deg 8.93 µg/m3 1.05 µg/m3
2022-05-26 11:00 27.79 µg/m3 0.99 µg/m3 65 µg/m3 0.44 mg/m3 26.88 °C 49.72 % 1,015.98 mbar 2.77 m/s 134.98 Deg 8.42 µg/m3 1.12 µg/m3
2022-05-26 10:00 35.43 µg/m3 1.17 µg/m3 55.76 µg/m3 0.44 mg/m3 27.12 °C 47.84 % 1,015.89 mbar 1.99 m/s 231.32 Deg 13.35 µg/m3 1.45 µg/m3
2022-05-26 09:00 38.46 µg/m3 1.03 µg/m3 51.09 µg/m3 0.43 mg/m3 26.17 °C 49.51 % 1,015.64 mbar 1.61 m/s 111.93 Deg 11.57 µg/m3 1.55 µg/m3
2022-05-26 08:00 37.65 µg/m3 0.89 µg/m3 47.58 µg/m3 0.42 mg/m3 24.13 °C 64.08 % 1,015.42 mbar 1.53 m/s 109.04 Deg 9 µg/m3 1.68 µg/m3
2022-05-26 07:00 48.54 µg/m3 0.66 µg/m3 28.32 µg/m3 0.41 mg/m3 22.41 °C 80.05 % 1,015.08 mbar 1.62 m/s 107.94 Deg 18.1 µg/m3 3.99 µg/m3
2022-05-26 06:00 53.25 µg/m3 0.88 µg/m3 22.49 µg/m3 0.39 mg/m3 20.93 °C 83.33 % 1,014.85 mbar 1.22 m/s 43.77 Deg 20.86 µg/m3 0.63 µg/m3
2022-05-26 05:00 32.77 µg/m3 0.42 µg/m3 40.37 µg/m3 0.34 mg/m3 20.82 °C 81.83 % 1,014.61 mbar 1.26 m/s 69.09 Deg 4.78 µg/m3 0.63 µg/m3
2022-05-26 04:00 18.82 µg/m3 0.27 µg/m3 57.05 µg/m3 0.32 mg/m3 21.66 °C 78.13 % 1,014.39 mbar 1.23 m/s 98.28 Deg 1.61 µg/m3 0.63 µg/m3
2022-05-26 03:00 31.44 µg/m3 0.25 µg/m3 58.24 µg/m3 0.22 mg/m3 22.16 °C 68.18 % 1,014.26 mbar 0.79 m/s 125.74 Deg 1.09 µg/m3 0.63 µg/m3
2022-05-26 02:00 17.8 µg/m3 0.52 µg/m3 51.69 µg/m3 0.37 mg/m3 22.26 °C 63.55 % 1,014.11 mbar 1.2 m/s 161.65 Deg 0.7 µg/m3 0.63 µg/m3
2022-05-26 01:00 13.3 µg/m3 0.44 µg/m3 56.72 µg/m3 0.37 mg/m3 22.34 °C 63.09 % 1,014.66 mbar 1.03 m/s 301.62 Deg 1.19 µg/m3 0.63 µg/m3
2022-05-26 00:00 12.87 µg/m3 0.44 µg/m3 61.38 µg/m3 0.37 mg/m3 23.48 °C 57.81 % 1,015.67 mbar 1.98 m/s 179.49 Deg 1.34 µg/m3 0.63 µg/m3

It is to be noted that the data is provisional and subject to quality assurance procedures. For validated data kindly refer your request to contact.air@era.org.mt